sensor_id;sensor_type;location;lat;lon;timestamp;P1;durP1;ratioP1;P2;durP2;ratioP2
27375;SDS011;14844;51.302;6.354;2023-06-14T00:00:39;11.82;;;7.55;;
27375;SDS011;14844;51.302;6.354;2023-06-14T00:03:08;11.15;;;8.43;;
27375;SDS011;14844;51.302;6.354;2023-06-14T00:05:35;19.13;;;8.40;;
27375;SDS011;14844;51.302;6.354;2023-06-14T00:08:07;13.75;;;7.93;;
27375;SDS011;14844;51.302;6.354;2023-06-14T00:10:34;10.70;;;8.13;;
27375;SDS011;14844;51.302;6.354;2023-06-14T00:13:04;12.43;;;8.27;;
27375;SDS011;14844;51.302;6.354;2023-06-14T00:15:30;11.63;;;7.97;;
27375;SDS011;14844;51.302;6.354;2023-06-14T00:17:56;16.55;;;8.73;;
27375;SDS011;14844;51.302;6.354;2023-06-14T00:20:25;12.57;;;8.90;;
27375;SDS011;14844;51.302;6.354;2023-06-14T00:22:55;17.38;;;8.70;;
27375;SDS011;14844;51.302;6.354;2023-06-14T00:25:22;15.02;;;8.77;;
27375;SDS011;14844;51.302;6.354;2023-06-14T00:27:50;13.18;;;8.38;;
27375;SDS011;14844;51.302;6.354;2023-06-14T00:30:16;14.45;;;8.82;;
27375;SDS011;14844;51.302;6.354;2023-06-14T00:32:42;12.07;;;8.15;;
27375;SDS011;14844;51.302;6.354;2023-06-14T00:35:08;14.68;;;8.38;;
27375;SDS011;14844;51.302;6.354;2023-06-14T00:37:35;17.73;;;8.32;;
27375;SDS011;14844;51.302;6.354;2023-06-14T00:40:00;14.57;;;8.50;;
27375;SDS011;14844;51.302;6.354;2023-06-14T00:42:26;12.20;;;7.93;;
27375;SDS011;14844;51.302;6.354;2023-06-14T00:44:52;16.95;;;8.05;;
27375;SDS011;14844;51.302;6.354;2023-06-14T00:47:18;13.27;;;8.18;;
27375;SDS011;14844;51.302;6.354;2023-06-14T00:49:48;13.07;;;8.38;;
27375;SDS011;14844;51.302;6.354;2023-06-14T00:52:16;14.05;;;8.52;;
27375;SDS011;14844;51.302;6.354;2023-06-14T00:54:42;11.60;;;8.27;;
27375;SDS011;14844;51.302;6.354;2023-06-14T00:57:08;15.43;;;8.20;;
27375;SDS011;14844;51.302;6.354;2023-06-14T00:59:36;12.63;;;7.75;;
27375;SDS011;14844;51.302;6.354;2023-06-14T01:02:13;16.85;;;7.93;;
27375;SDS011;14844;51.302;6.354;2023-06-14T01:04:40;13.10;;;8.10;;
27375;SDS011;14844;51.302;6.354;2023-06-14T01:07:23;17.33;;;7.85;;
27375;SDS011;14844;51.302;6.354;2023-06-14T01:15:36;13.30;;;8.10;;
27375;SDS011;14844;51.302;6.354;2023-06-14T01:18:03;15.20;;;7.88;;
27375;SDS011;14844;51.302;6.354;2023-06-14T01:20:31;12.23;;;8.07;;
27375;SDS011;14844;51.302;6.354;2023-06-14T01:22:58;17.17;;;8.25;;
27375;SDS011;14844;51.302;6.354;2023-06-14T01:25:24;14.60;;;8.10;;
27375;SDS011;14844;51.302;6.354;2023-06-14T01:27:51;14.95;;;8.00;;
27375;SDS011;14844;51.302;6.354;2023-06-14T01:30:19;10.80;;;7.75;;
27375;SDS011;14844;51.302;6.354;2023-06-14T01:32:46;11.43;;;7.68;;
27375;SDS011;14844;51.302;6.354;2023-06-14T01:35:13;17.20;;;8.07;;
27375;SDS011;14844;51.302;6.354;2023-06-14T01:37:39;12.90;;;7.60;;
27375;SDS011;14844;51.302;6.354;2023-06-14T01:40:06;11.10;;;7.63;;
27375;SDS011;14844;51.302;6.354;2023-06-14T01:42:34;13.18;;;6.95;;
27375;SDS011;14844;51.302;6.354;2023-06-14T01:45:02;12.30;;;7.03;;
27375;SDS011;14844;51.302;6.354;2023-06-14T01:47:29;13.93;;;7.63;;
27375;SDS011;14844;51.302;6.354;2023-06-14T01:49:55;11.38;;;7.90;;
27375;SDS011;14844;51.302;6.354;2023-06-14T01:52:21;13.40;;;7.55;;
27375;SDS011;14844;51.302;6.354;2023-06-14T01:54:49;11.77;;;7.63;;
27375;SDS011;14844;51.302;6.354;2023-06-14T01:57:17;12.30;;;7.30;;
27375;SDS011;14844;51.302;6.354;2023-06-14T01:59:43;11.57;;;7.38;;
27375;SDS011;14844;51.302;6.354;2023-06-14T02:02:13;10.73;;;7.63;;
27375;SDS011;14844;51.302;6.354;2023-06-14T02:04:40;17.15;;;8.05;;
27375;SDS011;14844;51.302;6.354;2023-06-14T02:07:05;12.27;;;6.90;;
27375;SDS011;14844;51.302;6.354;2023-06-14T02:09:31;12.35;;;7.72;;
27375;SDS011;14844;51.302;6.354;2023-06-14T02:11:57;10.20;;;7.38;;
27375;SDS011;14844;51.302;6.354;2023-06-14T02:14:22;15.25;;;7.10;;
27375;SDS011;14844;51.302;6.354;2023-06-14T02:16:48;9.40;;;7.35;;
27375;SDS011;14844;51.302;6.354;2023-06-14T02:19:17;15.93;;;7.60;;
27375;SDS011;14844;51.302;6.354;2023-06-14T02:21:43;16.48;;;8.00;;
27375;SDS011;14844;51.302;6.354;2023-06-14T02:24:09;12.85;;;7.60;;
27375;SDS011;14844;51.302;6.354;2023-06-14T02:26:35;12.05;;;7.50;;
27375;SDS011;14844;51.302;6.354;2023-06-14T02:29:02;11.35;;;7.20;;
27375;SDS011;14844;51.302;6.354;2023-06-14T02:31:32;17.98;;;7.68;;
27375;SDS011;14844;51.302;6.354;2023-06-14T02:33:58;11.90;;;8.20;;
27375;SDS011;14844;51.302;6.354;2023-06-14T02:36:23;14.20;;;7.43;;
27375;SDS011;14844;51.302;6.354;2023-06-14T02:38:49;11.35;;;7.63;;
27375;SDS011;14844;51.302;6.354;2023-06-14T02:41:15;9.75;;;7.00;;
27375;SDS011;14844;51.302;6.354;2023-06-14T02:43:40;14.73;;;8.13;;
27375;SDS011;14844;51.302;6.354;2023-06-14T02:46:06;12.63;;;8.00;;
27375;SDS011;14844;51.302;6.354;2023-06-14T02:48:32;13.05;;;7.50;;
27375;SDS011;14844;51.302;6.354;2023-06-14T02:50:58;11.30;;;7.60;;
27375;SDS011;14844;51.302;6.354;2023-06-14T02:53:23;10.55;;;7.97;;
27375;SDS011;14844;51.302;6.354;2023-06-14T02:55:49;13.63;;;8.57;;
27375;SDS011;14844;51.302;6.354;2023-06-14T02:58:14;14.90;;;8.07;;
27375;SDS011;14844;51.302;6.354;2023-06-14T03:00:41;15.50;;;8.02;;
27375;SDS011;14844;51.302;6.354;2023-06-14T03:03:07;12.02;;;7.78;;
27375;SDS011;14844;51.302;6.354;2023-06-14T03:05:40;12.00;;;7.72;;
27375;SDS011;14844;51.302;6.354;2023-06-14T03:08:11;9.10;;;7.20;;
27375;SDS011;14844;51.302;6.354;2023-06-14T03:10:42;12.63;;;8.13;;
27375;SDS011;14844;51.302;6.354;2023-06-14T03:13:08;12.15;;;7.53;;
27375;SDS011;14844;51.302;6.354;2023-06-14T03:15:35;14.30;;;8.27;;
27375;SDS011;14844;51.302;6.354;2023-06-14T03:18:01;12.15;;;8.07;;
27375;SDS011;14844;51.302;6.354;2023-06-14T03:20:28;11.85;;;7.72;;
27375;SDS011;14844;51.302;6.354;2023-06-14T03:22:59;13.20;;;7.45;;
27375;SDS011;14844;51.302;6.354;2023-06-14T03:25:25;13.80;;;7.57;;
27375;SDS011;14844;51.302;6.354;2023-06-14T03:27:54;12.95;;;7.47;;
27375;SDS011;14844;51.302;6.354;2023-06-14T03:30:20;12.63;;;8.55;;
27375;SDS011;14844;51.302;6.354;2023-06-14T03:32:45;11.77;;;7.95;;
27375;SDS011;14844;51.302;6.354;2023-06-14T03:35:11;12.65;;;7.55;;
27375;SDS011;14844;51.302;6.354;2023-06-14T03:37:42;11.60;;;8.40;;
27375;SDS011;14844;51.302;6.354;2023-06-14T03:40:08;13.65;;;8.85;;
27375;SDS011;14844;51.302;6.354;2023-06-14T03:42:34;15.65;;;8.77;;
27375;SDS011;14844;51.302;6.354;2023-06-14T03:44:59;18.48;;;8.82;;
27375;SDS011;14844;51.302;6.354;2023-06-14T03:47:25;17.17;;;8.15;;
27375;SDS011;14844;51.302;6.354;2023-06-14T03:49:52;18.05;;;8.27;;
27375;SDS011;14844;51.302;6.354;2023-06-14T03:52:17;15.43;;;7.88;;
27375;SDS011;14844;51.302;6.354;2023-06-14T03:54:43;17.63;;;8.00;;
27375;SDS011;14844;51.302;6.354;2023-06-14T03:57:09;15.45;;;8.35;;
27375;SDS011;14844;51.302;6.354;2023-06-14T03:59:35;19.70;;;9.63;;
27375;SDS011;14844;51.302;6.354;2023-06-14T04:02:01;15.25;;;8.57;;
27375;SDS011;14844;51.302;6.354;2023-06-14T04:04:27;14.35;;;8.20;;
27375;SDS011;14844;51.302;6.354;2023-06-14T04:06:54;16.23;;;7.20;;
27375;SDS011;14844;51.302;6.354;2023-06-14T04:09:21;17.70;;;7.80;;
27375;SDS011;14844;51.302;6.354;2023-06-14T04:11:50;17.45;;;7.57;;
27375;SDS011;14844;51.302;6.354;2023-06-14T04:14:17;19.88;;;7.40;;
27375;SDS011;14844;51.302;6.354;2023-06-14T04:16:43;18.00;;;7.57;;
27375;SDS011;14844;51.302;6.354;2023-06-14T04:19:10;19.10;;;7.78;;
27375;SDS011;14844;51.302;6.354;2023-06-14T04:21:35;17.67;;;7.60;;
27375;SDS011;14844;51.302;6.354;2023-06-14T04:24:01;13.73;;;7.60;;
27375;SDS011;14844;51.302;6.354;2023-06-14T04:26:27;12.80;;;7.30;;
27375;SDS011;14844;51.302;6.354;2023-06-14T04:28:55;22.73;;;8.20;;
27375;SDS011;14844;51.302;6.354;2023-06-14T04:31:21;10.80;;;7.28;;
27375;SDS011;14844;51.302;6.354;2023-06-14T04:33:50;11.68;;;6.82;;
27375;SDS011;14844;51.302;6.354;2023-06-14T04:36:18;12.77;;;6.22;;
27375;SDS011;14844;51.302;6.354;2023-06-14T04:39:17;23.83;;;7.90;;
27375;SDS011;14844;51.302;6.354;2023-06-14T04:41:43;24.67;;;8.05;;
27375;SDS011;14844;51.302;6.354;2023-06-14T04:44:09;25.13;;;7.40;;
27375;SDS011;14844;51.302;6.354;2023-06-14T04:46:35;14.43;;;6.40;;
27375;SDS011;14844;51.302;6.354;2023-06-14T04:49:17;14.00;;;6.47;;
27375;SDS011;14844;51.302;6.354;2023-06-14T04:51:43;12.30;;;5.93;;
27375;SDS011;14844;51.302;6.354;2023-06-14T04:54:10;13.38;;;5.53;;
27375;SDS011;14844;51.302;6.354;2023-06-14T04:56:37;10.52;;;5.63;;
27375;SDS011;14844;51.302;6.354;2023-06-14T04:59:03;10.23;;;5.90;;
27375;SDS011;14844;51.302;6.354;2023-06-14T05:01:32;9.48;;;5.40;;
27375;SDS011;14844;51.302;6.354;2023-06-14T05:03:58;11.70;;;5.32;;
27375;SDS011;14844;51.302;6.354;2023-06-14T05:06:24;13.63;;;5.18;;
27375;SDS011;14844;51.302;6.354;2023-06-14T05:08:51;9.63;;;5.13;;
27375;SDS011;14844;51.302;6.354;2023-06-14T05:11:16;10.52;;;5.20;;
27375;SDS011;14844;51.302;6.354;2023-06-14T05:13:42;10.32;;;4.97;;
27375;SDS011;14844;51.302;6.354;2023-06-14T05:16:09;14.35;;;5.00;;
27375;SDS011;14844;51.302;6.354;2023-06-14T05:18:36;14.23;;;4.90;;
27375;SDS011;14844;51.302;6.354;2023-06-14T05:21:02;13.63;;;4.85;;
27375;SDS011;14844;51.302;6.354;2023-06-14T05:23:29;11.73;;;4.88;;
27375;SDS011;14844;51.302;6.354;2023-06-14T05:25:55;10.25;;;4.97;;
27375;SDS011;14844;51.302;6.354;2023-06-14T05:28:21;10.75;;;4.63;;
27375;SDS011;14844;51.302;6.354;2023-06-14T05:30:47;10.80;;;5.10;;
27375;SDS011;14844;51.302;6.354;2023-06-14T05:33:13;14.55;;;5.00;;
27375;SDS011;14844;51.302;6.354;2023-06-14T05:35:38;13.82;;;5.10;;
27375;SDS011;14844;51.302;6.354;2023-06-14T05:38:04;10.45;;;4.57;;
27375;SDS011;14844;51.302;6.354;2023-06-14T05:40:30;10.18;;;5.05;;
27375;SDS011;14844;51.302;6.354;2023-06-14T05:42:56;12.50;;;5.15;;
27375;SDS011;14844;51.302;6.354;2023-06-14T05:45:21;14.18;;;5.45;;
27375;SDS011;14844;51.302;6.354;2023-06-14T05:47:47;10.32;;;5.47;;
27375;SDS011;14844;51.302;6.354;2023-06-14T05:50:13;12.60;;;5.20;;
27375;SDS011;14844;51.302;6.354;2023-06-14T05:52:38;11.80;;;5.72;;
27375;SDS011;14844;51.302;6.354;2023-06-14T05:55:04;12.80;;;5.60;;
27375;SDS011;14844;51.302;6.354;2023-06-14T05:57:31;15.20;;;5.30;;
27375;SDS011;14844;51.302;6.354;2023-06-14T05:59:57;10.60;;;4.95;;
27375;SDS011;14844;51.302;6.354;2023-06-14T06:02:22;13.55;;;5.72;;
27375;SDS011;14844;51.302;6.354;2023-06-14T06:04:48;16.27;;;5.97;;
27375;SDS011;14844;51.302;6.354;2023-06-14T06:07:14;13.45;;;5.18;;
27375;SDS011;14844;51.302;6.354;2023-06-14T06:09:40;12.98;;;5.00;;
27375;SDS011;14844;51.302;6.354;2023-06-14T06:12:06;10.20;;;5.15;;
27375;SDS011;14844;51.302;6.354;2023-06-14T06:14:32;20.23;;;5.43;;
27375;SDS011;14844;51.302;6.354;2023-06-14T06:16:58;9.50;;;4.90;;
27375;SDS011;14844;51.302;6.354;2023-06-14T06:19:23;10.52;;;4.95;;
27375;SDS011;14844;51.302;6.354;2023-06-14T06:21:49;11.77;;;4.80;;
27375;SDS011;14844;51.302;6.354;2023-06-14T06:24:15;11.65;;;3.83;;
27375;SDS011;14844;51.302;6.354;2023-06-14T06:26:41;9.38;;;3.95;;
27375;SDS011;14844;51.302;6.354;2023-06-14T06:29:06;10.65;;;4.00;;
27375;SDS011;14844;51.302;6.354;2023-06-14T06:31:32;7.65;;;3.67;;
27375;SDS011;14844;51.302;6.354;2023-06-14T06:33:57;11.55;;;3.50;;
27375;SDS011;14844;51.302;6.354;2023-06-14T06:36:23;15.13;;;4.20;;
27375;SDS011;14844;51.302;6.354;2023-06-14T06:38:49;6.63;;;3.33;;
27375;SDS011;14844;51.302;6.354;2023-06-14T06:41:15;10.00;;;3.67;;
27375;SDS011;14844;51.302;6.354;2023-06-14T06:43:41;12.15;;;3.60;;
27375;SDS011;14844;51.302;6.354;2023-06-14T06:46:06;10.35;;;3.53;;
27375;SDS011;14844;51.302;6.354;2023-06-14T06:48:32;13.32;;;3.53;;
27375;SDS011;14844;51.302;6.354;2023-06-14T06:50:58;9.85;;;3.35;;
27375;SDS011;14844;51.302;6.354;2023-06-14T06:53:23;7.15;;;2.90;;
27375;SDS011;14844;51.302;6.354;2023-06-14T06:55:49;8.50;;;3.13;;
27375;SDS011;14844;51.302;6.354;2023-06-14T06:58:14;10.27;;;2.92;;
27375;SDS011;14844;51.302;6.354;2023-06-14T07:00:40;8.23;;;3.03;;
27375;SDS011;14844;51.302;6.354;2023-06-14T07:03:06;9.20;;;2.97;;
27375;SDS011;14844;51.302;6.354;2023-06-14T07:05:31;7.63;;;2.60;;
27375;SDS011;14844;51.302;6.354;2023-06-14T07:07:57;5.10;;;2.40;;
27375;SDS011;14844;51.302;6.354;2023-06-14T07:10:23;5.22;;;2.30;;
27375;SDS011;14844;51.302;6.354;2023-06-14T07:12:49;14.95;;;3.03;;
27375;SDS011;14844;51.302;6.354;2023-06-14T07:15:15;7.03;;;2.65;;
27375;SDS011;14844;51.302;6.354;2023-06-14T07:17:41;4.93;;;2.40;;
27375;SDS011;14844;51.302;6.354;2023-06-14T07:20:07;8.25;;;2.70;;
27375;SDS011;14844;51.302;6.354;2023-06-14T07:22:39;10.32;;;2.45;;
27375;SDS011;14844;51.302;6.354;2023-06-14T07:25:08;11.77;;;2.53;;
27375;SDS011;14844;51.302;6.354;2023-06-14T07:27:37;6.53;;;2.40;;
27375;SDS011;14844;51.302;6.354;2023-06-14T07:30:03;8.73;;;1.95;;
27375;SDS011;14844;51.302;6.354;2023-06-14T07:32:29;8.43;;;2.40;;
27375;SDS011;14844;51.302;6.354;2023-06-14T07:34:54;6.43;;;1.58;;
27375;SDS011;14844;51.302;6.354;2023-06-14T07:37:20;5.65;;;1.95;;
27375;SDS011;14844;51.302;6.354;2023-06-14T07:39:45;3.65;;;2.00;;
27375;SDS011;14844;51.302;6.354;2023-06-14T07:42:11;5.28;;;1.75;;
27375;SDS011;14844;51.302;6.354;2023-06-14T07:44:36;4.63;;;1.50;;
27375;SDS011;14844;51.302;6.354;2023-06-14T07:47:02;12.57;;;1.73;;
27375;SDS011;14844;51.302;6.354;2023-06-14T07:49:28;7.10;;;1.92;;
27375;SDS011;14844;51.302;6.354;2023-06-14T07:51:53;10.45;;;1.90;;
27375;SDS011;14844;51.302;6.354;2023-06-14T07:54:19;5.10;;;1.60;;
27375;SDS011;14844;51.302;6.354;2023-06-14T07:56:49;3.95;;;1.60;;
27375;SDS011;14844;51.302;6.354;2023-06-14T07:59:15;5.53;;;1.60;;
27375;SDS011;14844;51.302;6.354;2023-06-14T08:01:41;6.68;;;1.65;;
27375;SDS011;14844;51.302;6.354;2023-06-14T08:04:11;6.40;;;1.50;;
27375;SDS011;14844;51.302;6.354;2023-06-14T08:06:37;3.97;;;1.70;;
27375;SDS011;14844;51.302;6.354;2023-06-14T08:09:03;6.10;;;1.90;;
27375;SDS011;14844;51.302;6.354;2023-06-14T08:11:30;4.70;;;1.55;;
27375;SDS011;14844;51.302;6.354;2023-06-14T08:13:56;4.97;;;1.67;;
27375;SDS011;14844;51.302;6.354;2023-06-14T08:16:22;3.75;;;1.50;;
27375;SDS011;14844;51.302;6.354;2023-06-14T08:18:48;8.73;;;1.73;;
27375;SDS011;14844;51.302;6.354;2023-06-14T08:21:14;3.00;;;1.35;;
27375;SDS011;14844;51.302;6.354;2023-06-14T08:23:42;4.57;;;1.30;;
27375;SDS011;14844;51.302;6.354;2023-06-14T08:26:08;3.28;;;0.95;;
27375;SDS011;14844;51.302;6.354;2023-06-14T08:28:35;2.67;;;1.35;;
27375;SDS011;14844;51.302;6.354;2023-06-14T08:31:00;4.15;;;1.40;;
27375;SDS011;14844;51.302;6.354;2023-06-14T08:33:26;8.15;;;1.30;;
27375;SDS011;14844;51.302;6.354;2023-06-14T08:35:52;5.30;;;1.42;;
27375;SDS011;14844;51.302;6.354;2023-06-14T08:38:18;3.92;;;1.35;;
27375;SDS011;14844;51.302;6.354;2023-06-14T08:40:45;4.75;;;1.70;;
27375;SDS011;14844;51.302;6.354;2023-06-14T08:43:15;3.88;;;1.38;;
27375;SDS011;14844;51.302;6.354;2023-06-14T08:45:40;2.92;;;1.55;;
27375;SDS011;14844;51.302;6.354;2023-06-14T08:48:06;2.63;;;1.50;;
27375;SDS011;14844;51.302;6.354;2023-06-14T08:50:32;6.05;;;1.45;;
27375;SDS011;14844;51.302;6.354;2023-06-14T08:53:01;6.15;;;1.60;;
27375;SDS011;14844;51.302;6.354;2023-06-14T08:55:28;4.63;;;1.58;;
27375;SDS011;14844;51.302;6.354;2023-06-14T08:57:55;3.00;;;1.45;;
27375;SDS011;14844;51.302;6.354;2023-06-14T09:00:25;5.60;;;1.38;;
27375;SDS011;14844;51.302;6.354;2023-06-14T09:02:53;4.68;;;1.50;;
27375;SDS011;14844;51.302;6.354;2023-06-14T09:05:25;5.07;;;1.80;;
27375;SDS011;14844;51.302;6.354;2023-06-14T09:07:51;5.93;;;1.80;;
27375;SDS011;14844;51.302;6.354;2023-06-14T09:10:17;7.60;;;1.65;;
27375;SDS011;14844;51.302;6.354;2023-06-14T09:12:44;6.78;;;1.60;;
27375;SDS011;14844;51.302;6.354;2023-06-14T09:15:09;6.57;;;1.83;;
27375;SDS011;14844;51.302;6.354;2023-06-14T09:17:36;6.47;;;2.03;;
27375;SDS011;14844;51.302;6.354;2023-06-14T09:20:05;6.25;;;1.67;;
27375;SDS011;14844;51.302;6.354;2023-06-14T09:22:34;5.15;;;1.65;;
27375;SDS011;14844;51.302;6.354;2023-06-14T09:24:59;3.00;;;1.63;;
27375;SDS011;14844;51.302;6.354;2023-06-14T09:27:26;5.70;;;1.83;;
27375;SDS011;14844;51.302;6.354;2023-06-14T09:29:52;8.27;;;1.60;;
27375;SDS011;14844;51.302;6.354;2023-06-14T09:32:18;10.90;;;1.55;;
27375;SDS011;14844;51.302;6.354;2023-06-14T09:34:44;4.97;;;1.50;;
27375;SDS011;14844;51.302;6.354;2023-06-14T09:37:11;3.88;;;1.38;;
27375;SDS011;14844;51.302;6.354;2023-06-14T09:39:49;9.20;;;2.58;;
27375;SDS011;14844;51.302;6.354;2023-06-14T09:42:18;4.18;;;1.50;;
27375;SDS011;14844;51.302;6.354;2023-06-14T09:44:46;3.47;;;1.65;;
27375;SDS011;14844;51.302;6.354;2023-06-14T09:47:12;7.13;;;2.00;;
27375;SDS011;14844;51.302;6.354;2023-06-14T09:49:39;7.72;;;1.88;;
27375;SDS011;14844;51.302;6.354;2023-06-14T09:52:05;2.90;;;1.60;;
27375;SDS011;14844;51.302;6.354;2023-06-14T09:54:35;10.15;;;2.83;;
27375;SDS011;14844;51.302;6.354;2023-06-14T09:57:07;6.43;;;1.80;;
27375;SDS011;14844;51.302;6.354;2023-06-14T09:59:40;7.90;;;2.00;;
27375;SDS011;14844;51.302;6.354;2023-06-14T10:02:10;4.53;;;1.90;;
27375;SDS011;14844;51.302;6.354;2023-06-14T10:04:39;8.13;;;2.40;;
27375;SDS011;14844;51.302;6.354;2023-06-14T10:07:11;5.78;;;2.28;;
27375;SDS011;14844;51.302;6.354;2023-06-14T10:09:46;8.55;;;1.90;;
27375;SDS011;14844;51.302;6.354;2023-06-14T10:12:16;6.28;;;2.22;;
27375;SDS011;14844;51.302;6.354;2023-06-14T10:14:47;9.27;;;2.38;;
27375;SDS011;14844;51.302;6.354;2023-06-14T10:17:17;7.50;;;2.33;;
27375;SDS011;14844;51.302;6.354;2023-06-14T10:19:48;6.68;;;2.08;;
27375;SDS011;14844;51.302;6.354;2023-06-14T10:22:30;4.05;;;2.00;;
27375;SDS011;14844;51.302;6.354;2023-06-14T10:25:01;6.35;;;2.22;;
27375;SDS011;14844;51.302;6.354;2023-06-14T10:27:27;6.93;;;2.00;;
27375;SDS011;14844;51.302;6.354;2023-06-14T10:32:18;9.95;;;2.20;;
27375;SDS011;14844;51.302;6.354;2023-06-14T10:34:45;7.45;;;1.90;;
27375;SDS011;14844;51.302;6.354;2023-06-14T10:37:18;4.45;;;2.05;;
27375;SDS011;14844;51.302;6.354;2023-06-14T10:39:44;5.43;;;1.75;;
27375;SDS011;14844;51.302;6.354;2023-06-14T10:42:13;8.00;;;1.95;;
27375;SDS011;14844;51.302;6.354;2023-06-14T10:45:13;5.68;;;1.65;;
27375;SDS011;14844;51.302;6.354;2023-06-14T10:47:32;9.15;;;1.60;;
27375;SDS011;14844;51.302;6.354;2023-06-14T10:50:07;3.17;;;1.55;;
27375;SDS011;14844;51.302;6.354;2023-06-14T10:52:34;4.07;;;1.58;;
27375;SDS011;14844;51.302;6.354;2023-06-14T10:57:36;7.88;;;1.48;;
27375;SDS011;14844;51.302;6.354;2023-06-14T11:00:04;4.65;;;1.60;;
27375;SDS011;14844;51.302;6.354;2023-06-14T11:02:45;10.40;;;1.75;;
27375;SDS011;14844;51.302;6.354;2023-06-14T11:05:29;4.35;;;1.40;;
27375;SDS011;14844;51.302;6.354;2023-06-14T11:10:37;6.90;;;1.58;;
27375;SDS011;14844;51.302;6.354;2023-06-14T11:13:04;3.35;;;1.40;;
27375;SDS011;14844;51.302;6.354;2023-06-14T11:15:31;3.35;;;1.30;;
27375;SDS011;14844;51.302;6.354;2023-06-14T11:18:01;5.18;;;1.40;;
27375;SDS011;14844;51.302;6.354;2023-06-14T11:20:30;4.53;;;1.27;;
27375;SDS011;14844;51.302;6.354;2023-06-14T11:22:56;3.38;;;1.23;;
27375;SDS011;14844;51.302;6.354;2023-06-14T11:25:22;6.95;;;1.40;;
27375;SDS011;14844;51.302;6.354;2023-06-14T11:27:51;6.00;;;1.35;;
27375;SDS011;14844;51.302;6.354;2023-06-14T11:30:17;5.93;;;1.33;;
27375;SDS011;14844;51.302;6.354;2023-06-14T11:32:47;2.67;;;1.30;;
27375;SDS011;14844;51.302;6.354;2023-06-14T11:35:13;3.70;;;1.20;;
27375;SDS011;14844;51.302;6.354;2023-06-14T11:37:39;3.80;;;1.20;;
27375;SDS011;14844;51.302;6.354;2023-06-14T11:40:06;8.38;;;1.40;;
27375;SDS011;14844;51.302;6.354;2023-06-14T11:42:34;5.20;;;1.48;;
27375;SDS011;14844;51.302;6.354;2023-06-14T11:45:01;4.55;;;1.30;;
27375;SDS011;14844;51.302;6.354;2023-06-14T11:47:34;4.18;;;1.40;;
27375;SDS011;14844;51.302;6.354;2023-06-14T11:50:03;7.32;;;1.23;;
27375;SDS011;14844;51.302;6.354;2023-06-14T11:52:30;3.92;;;1.10;;
27375;SDS011;14844;51.302;6.354;2023-06-14T11:54:56;5.38;;;1.52;;
27375;SDS011;14844;51.302;6.354;2023-06-14T11:57:23;5.13;;;1.25;;
27375;SDS011;14844;51.302;6.354;2023-06-14T11:59:49;2.03;;;1.10;;
27375;SDS011;14844;51.302;6.354;2023-06-14T12:02:15;5.32;;;1.17;;
27375;SDS011;14844;51.302;6.354;2023-06-14T12:04:41;2.63;;;1.10;;
27375;SDS011;14844;51.302;6.354;2023-06-14T12:07:11;4.20;;;1.00;;
27375;SDS011;14844;51.302;6.354;2023-06-14T12:12:24;4.07;;;1.10;;
27375;SDS011;14844;51.302;6.354;2023-06-14T12:14:51;4.35;;;1.10;;
27375;SDS011;14844;51.302;6.354;2023-06-14T12:17:17;4.28;;;1.35;;
27375;SDS011;14844;51.302;6.354;2023-06-14T12:19:44;2.38;;;1.13;;
27375;SDS011;14844;51.302;6.354;2023-06-14T12:22:10;3.40;;;1.40;;
27375;SDS011;14844;51.302;6.354;2023-06-14T12:24:36;3.67;;;1.30;;
27375;SDS011;14844;51.302;6.354;2023-06-14T12:27:03;2.70;;;1.17;;
27375;SDS011;14844;51.302;6.354;2023-06-14T12:29:29;5.95;;;1.13;;
27375;SDS011;14844;51.302;6.354;2023-06-14T12:31:58;5.80;;;1.27;;
27375;SDS011;14844;51.302;6.354;2023-06-14T12:34:24;3.28;;;1.05;;
27375;SDS011;14844;51.302;6.354;2023-06-14T12:36:50;2.83;;;1.00;;
27375;SDS011;14844;51.302;6.354;2023-06-14T12:39:16;4.03;;;1.20;;
27375;SDS011;14844;51.302;6.354;2023-06-14T12:41:41;1.90;;;1.30;;
27375;SDS011;14844;51.302;6.354;2023-06-14T12:44:07;3.15;;;1.13;;
27375;SDS011;14844;51.302;6.354;2023-06-14T12:46:34;5.15;;;1.40;;
27375;SDS011;14844;51.302;6.354;2023-06-14T12:49:04;4.60;;;1.30;;
27375;SDS011;14844;51.302;6.354;2023-06-14T12:51:30;4.25;;;1.08;;
27375;SDS011;14844;51.302;6.354;2023-06-14T12:53:56;3.42;;;1.30;;
27375;SDS011;14844;51.302;6.354;2023-06-14T12:56:21;2.67;;;1.10;;
27375;SDS011;14844;51.302;6.354;2023-06-14T12:58:47;2.78;;;1.27;;
27375;SDS011;14844;51.302;6.354;2023-06-14T13:01:12;4.13;;;1.20;;
27375;SDS011;14844;51.302;6.354;2023-06-14T13:03:38;5.15;;;1.38;;
27375;SDS011;14844;51.302;6.354;2023-06-14T13:06:04;7.43;;;1.30;;
27375;SDS011;14844;51.302;6.354;2023-06-14T13:08:30;3.80;;;1.40;;
27375;SDS011;14844;51.302;6.354;2023-06-14T13:10:56;3.05;;;1.10;;
27375;SDS011;14844;51.302;6.354;2023-06-14T13:13:24;6.32;;;1.38;;
27375;SDS011;14844;51.302;6.354;2023-06-14T13:15:55;3.05;;;1.33;;
27375;SDS011;14844;51.302;6.354;2023-06-14T13:18:20;4.55;;;1.42;;
27375;SDS011;14844;51.302;6.354;2023-06-14T13:20:46;2.95;;;1.15;;
27375;SDS011;14844;51.302;6.354;2023-06-14T13:23:12;2.78;;;1.27;;
27375;SDS011;14844;51.302;6.354;2023-06-14T13:25:39;5.93;;;1.20;;
27375;SDS011;14844;51.302;6.354;2023-06-14T13:28:05;6.80;;;1.67;;
27375;SDS011;14844;51.302;6.354;2023-06-14T13:30:31;1.70;;;1.20;;
27375;SDS011;14844;51.302;6.354;2023-06-14T13:32:57;7.75;;;1.20;;
27375;SDS011;14844;51.302;6.354;2023-06-14T13:35:23;5.57;;;1.20;;
27375;SDS011;14844;51.302;6.354;2023-06-14T13:37:49;4.60;;;1.05;;
27375;SDS011;14844;51.302;6.354;2023-06-14T13:40:14;6.05;;;1.35;;
27375;SDS011;14844;51.302;6.354;2023-06-14T13:42:40;9.07;;;1.30;;
27375;SDS011;14844;51.302;6.354;2023-06-14T13:45:06;3.15;;;1.10;;
27375;SDS011;14844;51.302;6.354;2023-06-14T13:47:32;4.70;;;1.25;;
27375;SDS011;14844;51.302;6.354;2023-06-14T13:49:58;3.00;;;1.17;;
27375;SDS011;14844;51.302;6.354;2023-06-14T13:52:24;2.35;;;1.17;;
27375;SDS011;14844;51.302;6.354;2023-06-14T13:54:50;12.00;;;1.35;;
27375;SDS011;14844;51.302;6.354;2023-06-14T13:57:16;2.67;;;1.48;;
27375;SDS011;14844;51.302;6.354;2023-06-14T13:59:42;7.45;;;1.30;;
27375;SDS011;14844;51.302;6.354;2023-06-14T14:02:11;4.75;;;1.30;;
27375;SDS011;14844;51.302;6.354;2023-06-14T14:04:37;5.85;;;1.48;;
27375;SDS011;14844;51.302;6.354;2023-06-14T14:07:04;3.53;;;1.10;;
27375;SDS011;14844;51.302;6.354;2023-06-14T14:09:34;3.63;;;1.63;;
27375;SDS011;14844;51.302;6.354;2023-06-14T14:12:00;6.65;;;1.60;;
27375;SDS011;14844;51.302;6.354;2023-06-14T14:14:27;10.18;;;1.50;;
27375;SDS011;14844;51.302;6.354;2023-06-14T14:16:53;5.05;;;1.30;;
27375;SDS011;14844;51.302;6.354;2023-06-14T14:19:19;6.05;;;1.30;;
27375;SDS011;14844;51.302;6.354;2023-06-14T14:21:46;3.55;;;1.20;;
27375;SDS011;14844;51.302;6.354;2023-06-14T14:24:11;3.67;;;1.33;;
27375;SDS011;14844;51.302;6.354;2023-06-14T14:26:37;2.05;;;1.10;;
27375;SDS011;14844;51.302;6.354;2023-06-14T14:29:03;2.60;;;1.15;;
27375;SDS011;14844;51.302;6.354;2023-06-14T14:31:28;2.65;;;1.30;;
27375;SDS011;14844;51.302;6.354;2023-06-14T14:33:54;4.75;;;1.30;;
27375;SDS011;14844;51.302;6.354;2023-06-14T14:36:19;5.32;;;1.20;;
27375;SDS011;14844;51.302;6.354;2023-06-14T14:38:45;4.32;;;1.40;;
27375;SDS011;14844;51.302;6.354;2023-06-14T14:41:12;2.78;;;1.33;;
27375;SDS011;14844;51.302;6.354;2023-06-14T14:43:38;4.90;;;1.30;;
27375;SDS011;14844;51.302;6.354;2023-06-14T14:46:03;5.93;;;1.40;;
27375;SDS011;14844;51.302;6.354;2023-06-14T14:48:29;4.88;;;1.48;;
27375;SDS011;14844;51.302;6.354;2023-06-14T14:50:54;3.80;;;1.17;;
27375;SDS011;14844;51.302;6.354;2023-06-14T14:53:20;4.00;;;1.55;;
27375;SDS011;14844;51.302;6.354;2023-06-14T14:55:46;7.00;;;1.48;;